createdAt,value
2022-11-10T00:01:10.800Z,7.20
2022-11-10T00:03:39.327Z,7.20
2022-11-10T00:06:08.087Z,7.20
2022-11-10T00:08:35.424Z,7.10
2022-11-10T00:11:07.235Z,7.20
2022-11-10T00:13:57.901Z,7.20
2022-11-10T00:16:43.057Z,7.20
2022-11-10T00:19:09.964Z,7.20
2022-11-10T00:21:37.778Z,7.10
2022-11-10T00:24:05.230Z,7.20
2022-11-10T00:26:32.120Z,7.20
2022-11-10T00:28:58.897Z,7.20
2022-11-10T00:31:28.480Z,7.10
2022-11-10T00:33:55.722Z,7.00
2022-11-10T00:36:22.489Z,7.10
2022-11-10T00:38:51.388Z,7.00
2022-11-10T00:41:18.199Z,7.10
2022-11-10T00:43:44.932Z,7.10
2022-11-10T00:46:11.850Z,7.10
2022-11-10T00:48:38.639Z,7.00
2022-11-10T00:51:05.730Z,7.00
2022-11-10T00:53:32.561Z,6.90
2022-11-10T00:55:59.355Z,7.00
2022-11-10T00:58:26.148Z,7.00
2022-11-10T01:01:02.275Z,6.90
2022-11-10T01:03:29.339Z,6.90
2022-11-10T01:05:56.108Z,6.90
2022-11-10T01:08:23.165Z,6.80
2022-11-10T01:10:50.085Z,6.80
2022-11-10T01:13:16.833Z,6.80
2022-11-10T01:15:43.705Z,6.90
2022-11-10T01:18:10.545Z,6.90
2022-11-10T01:20:37.542Z,6.90
2022-11-10T01:23:04.531Z,6.90
2022-11-10T01:25:31.308Z,6.80
2022-11-10T01:27:58.064Z,6.80
2022-11-10T01:30:24.837Z,6.70
2022-11-10T01:32:51.670Z,6.80
2022-11-10T01:35:18.428Z,6.80
2022-11-10T01:37:45.540Z,6.80
2022-11-10T01:40:12.737Z,6.80
2022-11-10T01:42:54.282Z,6.80
2022-11-10T01:45:24.119Z,6.70
2022-11-10T01:47:56.155Z,6.80
2022-11-10T01:50:27.214Z,6.80
2022-11-10T01:52:57.271Z,6.80
2022-11-10T01:55:25.258Z,6.80
2022-11-10T01:57:52.020Z,6.80
2022-11-10T02:00:19.998Z,6.80
2022-11-10T02:02:56.079Z,6.70
2022-11-10T02:05:23.592Z,6.60
2022-11-10T02:07:51.808Z,6.60
2022-11-10T02:10:20.542Z,6.70
2022-11-10T02:12:49.571Z,6.60
2022-11-10T02:15:18.282Z,6.60
2022-11-10T02:17:47.798Z,6.60
2022-11-10T02:20:18.339Z,6.50
2022-11-10T02:22:45.148Z,6.50
2022-11-10T02:25:16.701Z,6.60
2022-11-10T02:27:43.528Z,6.50
2022-11-10T02:30:11.149Z,6.50
2022-11-10T02:32:37.935Z,6.50
2022-11-10T02:35:05.205Z,6.50
2022-11-10T02:37:32.300Z,6.50
2022-11-10T02:39:59.095Z,6.50
2022-11-10T02:42:26.111Z,6.50
2022-11-10T02:44:52.833Z,6.50
2022-11-10T02:47:19.762Z,6.50
2022-11-10T02:49:46.558Z,6.50
2022-11-10T02:52:13.292Z,6.50
2022-11-10T02:54:40.079Z,6.50
2022-11-10T02:57:06.844Z,6.30
2022-11-10T02:59:33.582Z,6.40
2022-11-10T03:02:00.320Z,6.40
2022-11-10T03:04:27.125Z,6.40
2022-11-10T03:06:53.894Z,6.50
2022-11-10T03:09:20.898Z,6.50
2022-11-10T03:11:47.722Z,6.60
2022-11-10T03:14:14.497Z,6.70
2022-11-10T03:16:41.259Z,6.60
2022-11-10T03:19:08.075Z,6.50
2022-11-10T03:21:34.819Z,6.60
2022-11-10T03:24:01.560Z,6.70
2022-11-10T03:26:28.359Z,6.80
2022-11-10T03:28:55.102Z,6.80
2022-11-10T03:31:21.842Z,6.70
2022-11-10T03:33:48.632Z,6.70
2022-11-10T03:36:15.471Z,6.80
2022-11-10T03:38:42.284Z,6.70
2022-11-10T03:41:24.360Z,6.80
2022-11-10T03:43:51.210Z,6.70
2022-11-10T03:46:18.677Z,6.80
2022-11-10T03:48:51.846Z,6.90
2022-11-10T03:51:20.377Z,6.80
2022-11-10T03:53:47.182Z,6.90
2022-11-10T03:56:14.059Z,6.90
2022-11-10T03:58:41.690Z,6.90
2022-11-10T04:01:08.665Z,6.90
2022-11-10T04:03:35.452Z,6.90
2022-11-10T04:06:21.062Z,7.00
2022-11-10T04:09:00.077Z,7.00
2022-11-10T04:11:49.217Z,7.00
2022-11-10T04:14:35.217Z,7.10
2022-11-10T04:17:02.860Z,7.00
2022-11-10T04:19:30.163Z,7.00
2022-11-10T04:21:57.302Z,7.00
2022-11-10T04:24:24.093Z,7.10
2022-11-10T04:26:51.063Z,7.20
2022-11-10T04:29:19.547Z,7.20
2022-11-10T04:31:46.959Z,7.20
2022-11-10T04:34:15.396Z,7.20
2022-11-10T04:36:44.254Z,7.10
2022-11-10T04:39:11.145Z,7.00
2022-11-10T04:41:38.416Z,7.10
2022-11-10T04:44:05.424Z,7.00
2022-11-10T04:46:38.014Z,7.10
2022-11-10T04:49:06.562Z,7.00
2022-11-10T04:51:38.370Z,7.10
2022-11-10T04:54:06.898Z,7.10
2022-11-10T04:56:34.908Z,7.00
2022-11-10T04:59:01.965Z,7.00
2022-11-10T05:01:28.843Z,7.00
2022-11-10T05:03:56.065Z,7.00
2022-11-10T05:06:23.144Z,7.00
2022-11-10T05:08:50.590Z,7.00
2022-11-10T05:11:17.649Z,7.00
2022-11-10T05:13:45.368Z,7.00
2022-11-10T05:16:12.954Z,7.00
2022-11-10T05:18:40.375Z,7.10
2022-11-10T05:21:07.274Z,7.10
2022-11-10T05:23:40.275Z,7.10
2022-11-10T05:26:10.447Z,7.10
2022-11-10T05:28:38.573Z,7.10
2022-11-10T05:31:05.861Z,7.10
2022-11-10T05:33:32.975Z,7.00
2022-11-10T05:35:59.759Z,7.10
2022-11-10T05:38:26.556Z,7.00
2022-11-10T05:40:53.748Z,7.10
2022-11-10T05:43:20.867Z,7.10
2022-11-10T05:45:48.007Z,7.10
2022-11-10T05:48:15.064Z,7.10
2022-11-10T05:50:43.258Z,7.10
2022-11-10T05:53:10.379Z,7.10
2022-11-10T05:55:37.445Z,7.10
2022-11-10T05:58:04.407Z,7.30
2022-11-10T06:00:32.638Z,7.50
2022-11-10T06:03:10.384Z,7.70
2022-11-10T06:05:37.234Z,7.90
2022-11-10T06:08:05.283Z,7.90
2022-11-10T06:10:33.815Z,7.80
2022-11-10T06:13:00.829Z,7.70
2022-11-10T06:15:28.493Z,7.50
2022-11-10T06:17:55.616Z,7.50
2022-11-10T06:20:23.390Z,7.50
2022-11-10T06:23:01.050Z,7.40
2022-11-10T06:25:33.171Z,7.50
2022-11-10T06:28:01.810Z,7.40
2022-11-10T06:30:29.897Z,7.30
2022-11-10T06:32:56.891Z,7.30
2022-11-10T06:35:24.843Z,7.30
2022-11-10T06:38:12.897Z,7.20
2022-11-10T06:40:39.763Z,7.30
2022-11-10T06:43:06.625Z,7.30
2022-11-10T06:45:33.397Z,7.30
2022-11-10T06:48:20.586Z,7.30
2022-11-10T06:50:47.306Z,7.20
2022-11-10T06:53:14.032Z,7.20
2022-11-10T06:55:40.795Z,7.30
2022-11-10T06:58:07.524Z,7.40
2022-11-10T07:00:34.420Z,7.40
2022-11-10T07:03:03.033Z,7.30
2022-11-10T07:05:30.188Z,7.30
2022-11-10T07:08:01.404Z,7.30
2022-11-10T07:10:28.199Z,7.40
2022-11-10T07:12:59.258Z,7.40
2022-11-10T07:15:26.447Z,7.50
2022-11-10T07:17:53.232Z,7.50
2022-11-10T07:20:20.309Z,7.50
2022-11-10T07:22:47.117Z,7.60
2022-11-10T07:25:14.026Z,7.60
2022-11-10T07:27:40.762Z,7.70
2022-11-10T07:30:08.056Z,7.70
2022-11-10T07:32:34.943Z,7.80
2022-11-10T07:35:01.678Z,7.90
2022-11-10T07:37:28.514Z,7.80
2022-11-10T07:39:55.301Z,8.00
2022-11-10T07:42:22.084Z,8.00
2022-11-10T07:44:48.818Z,8.10
2022-11-10T07:47:15.685Z,8.10
2022-11-10T07:49:42.425Z,8.00
2022-11-10T07:52:09.185Z,8.00
2022-11-10T07:54:35.965Z,8.10
2022-11-10T07:57:02.745Z,8.20
2022-11-10T07:59:29.488Z,8.20
2022-11-10T08:01:56.351Z,8.30
2022-11-10T08:04:23.078Z,8.30
2022-11-10T08:06:49.878Z,8.40
2022-11-10T08:09:16.769Z,8.40
2022-11-10T08:11:43.553Z,8.40
2022-11-10T08:14:10.393Z,8.40
2022-11-10T08:16:37.153Z,8.50
2022-11-10T08:19:03.891Z,8.50
2022-11-10T08:21:31.555Z,8.40
2022-11-10T08:23:58.378Z,8.60
2022-11-10T08:26:25.152Z,8.70
2022-11-10T08:28:51.881Z,8.80
2022-11-10T08:31:18.674Z,8.80
2022-11-10T08:33:45.432Z,8.70
2022-11-10T08:36:12.292Z,8.70
2022-11-10T08:38:39.120Z,8.60
2022-11-10T08:41:05.967Z,8.50
2022-11-10T08:43:32.734Z,8.70
2022-11-10T08:45:59.646Z,8.70
2022-11-10T08:48:26.383Z,8.60
2022-11-10T08:50:53.767Z,8.60
2022-11-10T08:53:23.965Z,8.80
2022-11-10T08:55:53.159Z,8.70
2022-11-10T08:58:21.671Z,8.80
2022-11-10T09:00:49.055Z,9.00
2022-11-10T09:03:17.187Z,8.90
2022-11-10T09:05:44.018Z,8.90
2022-11-10T09:08:10.901Z,9.00
2022-11-10T09:10:43.190Z,8.90
2022-11-10T09:13:11.864Z,9.00
2022-11-10T09:15:39.081Z,8.90
2022-11-10T09:18:07.212Z,8.80
2022-11-10T09:20:36.024Z,8.90
2022-11-10T09:23:11.285Z,8.80
2022-11-10T09:25:38.660Z,8.80
2022-11-10T09:28:05.814Z,8.90
2022-11-10T09:30:32.910Z,9.00
2022-11-10T09:33:00.869Z,9.00
2022-11-10T09:35:28.072Z,9.00
2022-11-10T09:37:54.868Z,9.10
2022-11-10T09:40:25.003Z,9.10
2022-11-10T09:42:56.615Z,9.10
2022-11-10T09:45:36.411Z,8.90
2022-11-10T09:48:14.943Z,8.80
2022-11-10T09:50:55.761Z,8.90
2022-11-10T09:53:41.454Z,8.90
2022-11-10T09:56:14.265Z,8.90
2022-11-10T09:58:43.552Z,9.00
2022-11-10T10:01:17.700Z,9.10
2022-11-10T10:03:52.696Z,9.10
2022-11-10T10:06:21.981Z,9.10
2022-11-10T10:09:36.498Z,9.00
2022-11-10T10:12:09.108Z,9.00
2022-11-10T10:14:56.484Z,8.90
2022-11-10T10:17:27.236Z,8.90
2022-11-10T10:20:02.660Z,9.00
2022-11-10T10:23:00.712Z,9.00
2022-11-10T10:25:28.454Z,8.90
2022-11-10T10:28:41.662Z,9.00
2022-11-10T10:31:32.693Z,8.90
2022-11-10T10:33:59.970Z,8.90
2022-11-10T10:36:29.455Z,8.90
2022-11-10T10:39:11.055Z,8.90
2022-11-10T10:41:38.339Z,9.00
2022-11-10T10:44:17.014Z,9.00
2022-11-10T10:46:48.684Z,9.00
2022-11-10T10:49:29.175Z,9.10
2022-11-10T10:52:05.890Z,9.20
2022-11-10T10:54:34.021Z,9.10
2022-11-10T10:57:05.257Z,9.10
2022-11-10T10:59:33.102Z,9.10
2022-11-10T11:02:00.964Z,9.00
2022-11-10T11:04:29.632Z,9.00
2022-11-10T11:06:58.680Z,9.00
2022-11-10T11:09:28.245Z,9.00
2022-11-10T11:12:07.747Z,9.00
2022-11-10T11:14:34.744Z,8.90
2022-11-10T11:17:20.151Z,9.10
2022-11-10T11:19:58.531Z,9.10
2022-11-10T11:22:49.170Z,9.10
2022-11-10T11:25:32.374Z,9.10
2022-11-10T11:28:17.578Z,9.00
2022-11-10T11:30:56.482Z,9.00
2022-11-10T11:33:38.101Z,9.10
2022-11-10T11:36:23.775Z,9.00
2022-11-10T11:38:58.128Z,8.80
2022-11-10T11:41:31.054Z,8.90
2022-11-10T11:44:00.797Z,8.80
2022-11-10T11:46:43.673Z,8.90
2022-11-10T11:49:46.211Z,8.90
2022-11-10T11:52:15.990Z,8.90
2022-11-10T11:54:48.417Z,8.90
2022-11-10T11:57:38.793Z,8.90
2022-11-10T12:00:18.362Z,8.70
2022-11-10T12:02:57.331Z,8.80
2022-11-10T12:05:37.257Z,8.80
2022-11-10T12:08:24.938Z,8.90
2022-11-10T12:11:14.399Z,8.90
2022-11-10T12:13:47.313Z,8.80
2022-11-10T12:16:18.067Z,8.80
2022-11-10T12:18:55.902Z,8.80
2022-11-10T12:21:51.703Z,8.70
2022-11-10T12:24:43.093Z,8.80
2022-11-10T12:27:28.534Z,8.80
2022-11-10T12:30:12.050Z,8.80
2022-11-10T12:33:15.457Z,8.70
2022-11-10T12:35:44.330Z,8.60
2022-11-10T12:38:19.570Z,8.60
2022-11-10T12:40:52.073Z,8.50
2022-11-10T12:43:25.640Z,8.70
2022-11-10T12:45:57.808Z,8.70
2022-11-10T12:48:26.790Z,8.70
2022-11-10T12:51:13.860Z,8.70
2022-11-10T12:53:42.451Z,8.60
2022-11-10T12:56:18.631Z,8.50
2022-11-10T12:58:45.434Z,8.60
2022-11-10T13:01:20.597Z,8.60
2022-11-10T13:04:14.493Z,8.60
2022-11-10T13:06:50.691Z,8.60
2022-11-10T13:09:29.288Z,8.60
2022-11-10T13:12:15.910Z,8.70
2022-11-10T13:14:44.461Z,8.70
2022-11-10T13:17:33.860Z,8.70
2022-11-10T13:20:27.571Z,8.60
2022-11-10T13:22:47.858Z,8.60
2022-11-10T13:25:39.190Z,8.60
2022-11-10T13:28:09.048Z,8.60
2022-11-10T13:30:48.739Z,8.60
2022-11-10T13:34:01.605Z,8.60
2022-11-10T13:36:47.210Z,8.60
2022-11-10T13:39:20.127Z,8.70
2022-11-10T13:42:00.612Z,8.60
2022-11-10T13:44:39.276Z,8.70
2022-11-10T13:47:09.020Z,8.70
2022-11-10T13:49:51.725Z,8.60
2022-11-10T13:52:39.193Z,8.60
2022-11-10T13:55:21.729Z,8.70
2022-11-10T13:58:04.857Z,8.60
2022-11-10T14:00:34.494Z,8.70
2022-11-10T14:03:03.432Z,8.60
2022-11-10T14:05:30.338Z,8.70
2022-11-10T14:08:21.520Z,8.70
2022-11-10T14:10:56.007Z,8.80
2022-11-10T14:13:52.733Z,8.70
2022-11-10T14:16:25.562Z,8.70
2022-11-10T14:19:05.954Z,8.70
2022-11-10T14:21:38.715Z,8.80
2022-11-10T14:24:19.769Z,8.60
2022-11-10T14:26:54.758Z,8.70
2022-11-10T14:29:26.639Z,8.70
2022-11-10T14:31:53.450Z,8.70
2022-11-10T14:34:21.006Z,8.70
2022-11-10T14:36:59.032Z,8.80
2022-11-10T14:39:30.539Z,8.70
2022-11-10T14:41:59.559Z,8.80
2022-11-10T14:44:28.590Z,8.80
2022-11-10T14:46:56.305Z,8.80
2022-11-10T14:49:27.001Z,8.70
2022-11-10T14:51:58.701Z,8.80
2022-11-10T14:54:27.719Z,8.70
2022-11-10T14:56:55.759Z,8.70
2022-11-10T14:59:24.569Z,8.70
2022-11-10T15:01:59.774Z,8.80
2022-11-10T15:04:32.902Z,8.80
2022-11-10T15:07:00.580Z,8.70
2022-11-10T15:09:30.920Z,8.80
2022-11-10T15:12:17.647Z,8.90
2022-11-10T15:14:46.314Z,8.90
2022-11-10T15:17:17.960Z,8.90
2022-11-10T15:19:48.551Z,8.80
2022-11-10T15:22:35.589Z,8.80
2022-11-10T15:25:19.028Z,8.80
2022-11-10T15:28:12.131Z,8.90
2022-11-10T15:30:47.505Z,8.90
2022-11-10T15:33:20.845Z,8.80
2022-11-10T15:35:47.630Z,8.90
2022-11-10T15:38:19.604Z,8.90
2022-11-10T15:40:50.286Z,8.90
2022-11-10T15:43:27.348Z,8.90
2022-11-10T15:46:18.380Z,8.90
2022-11-10T15:48:51.340Z,8.90
2022-11-10T15:51:24.704Z,8.90
2022-11-10T15:53:54.291Z,8.80
2022-11-10T15:56:23.647Z,8.80
2022-11-10T15:58:57.669Z,8.80
2022-11-10T16:01:27.683Z,8.80
2022-11-10T16:03:55.195Z,8.70
2022-11-10T16:06:21.949Z,8.80
2022-11-10T16:08:48.738Z,8.80
2022-11-10T16:11:20.958Z,8.70
2022-11-10T16:13:50.281Z,8.70
2022-11-10T16:16:18.701Z,8.70
2022-11-10T16:18:45.651Z,8.70
2022-11-10T16:21:14.547Z,8.80
2022-11-10T16:23:42.170Z,8.80
2022-11-10T16:26:17.290Z,8.90
2022-11-10T16:28:47.797Z,8.90
2022-11-10T16:31:17.099Z,8.90
2022-11-10T16:33:43.907Z,8.90
2022-11-10T16:36:35.428Z,8.80
2022-11-10T16:39:03.859Z,8.90
2022-11-10T16:41:30.595Z,8.90
2022-11-10T16:43:57.366Z,9.10
2022-11-10T16:46:26.958Z,9.00
2022-11-10T16:48:56.401Z,9.10
2022-11-10T16:51:45.573Z,9.00
2022-11-10T16:54:15.299Z,9.00
2022-11-10T16:56:42.127Z,9.00
2022-11-10T16:59:09.622Z,9.10
2022-11-10T17:01:37.782Z,9.10
2022-11-10T17:04:11.047Z,9.20
2022-11-10T17:06:38.006Z,9.10
2022-11-10T17:09:26.695Z,9.00
2022-11-10T17:11:53.461Z,9.00
2022-11-10T17:14:20.564Z,9.00
2022-11-10T17:16:47.561Z,9.00
2022-11-10T17:19:21.601Z,9.10
2022-11-10T17:21:49.686Z,9.00
2022-11-10T17:24:17.393Z,9.00
2022-11-10T17:26:44.869Z,8.90
2022-11-10T17:29:17.247Z,9.00
2022-11-10T17:31:44.708Z,8.90
2022-11-10T17:34:11.472Z,9.00
2022-11-10T17:36:39.424Z,9.00
2022-11-10T17:39:06.438Z,8.90
2022-11-10T17:41:34.250Z,9.00
2022-11-10T17:44:01.040Z,8.90
2022-11-10T17:46:27.791Z,8.90
2022-11-10T17:49:00.071Z,9.00
2022-11-10T17:51:31.994Z,9.00
2022-11-10T17:54:03.729Z,9.00
2022-11-10T17:56:31.528Z,9.00
2022-11-10T17:58:58.603Z,9.00
2022-11-10T18:01:25.421Z,9.00
2022-11-10T18:03:52.275Z,9.00
2022-11-10T18:06:21.166Z,9.10
2022-11-10T18:08:48.385Z,9.00
2022-11-10T18:11:17.617Z,9.00
2022-11-10T18:13:44.914Z,9.00
2022-11-10T18:16:13.990Z,9.00
2022-11-10T18:18:41.434Z,9.00
2022-11-10T18:21:09.568Z,8.90
2022-11-10T18:23:36.319Z,8.90
2022-11-10T18:26:08.447Z,9.00
2022-11-10T18:28:35.909Z,9.00
2022-11-10T18:31:10.412Z,9.10
2022-11-10T18:33:37.490Z,9.10
2022-11-10T18:36:04.527Z,9.10
2022-11-10T18:38:31.702Z,9.00
2022-11-10T18:41:23.922Z,9.00
2022-11-10T18:43:50.970Z,9.10
2022-11-10T18:46:17.808Z,9.10
2022-11-10T18:48:48.157Z,9.00
2022-11-10T18:51:16.246Z,9.10
2022-11-10T18:53:43.004Z,9.00
2022-11-10T18:56:09.849Z,9.10
2022-11-10T18:58:36.593Z,9.10
2022-11-10T19:01:05.524Z,9.10
2022-11-10T19:03:32.537Z,9.10
2022-11-10T19:05:59.678Z,8.90
2022-11-10T19:08:27.327Z,9.00
2022-11-10T19:10:55.937Z,9.00
2022-11-10T19:13:23.685Z,9.10
2022-11-10T19:15:50.841Z,9.10
2022-11-10T19:18:17.651Z,9.10
2022-11-10T19:20:44.402Z,9.00
2022-11-10T19:23:11.138Z,9.00
2022-11-10T19:25:37.948Z,9.10
2022-11-10T19:28:04.765Z,9.00
2022-11-10T19:30:31.579Z,9.00
2022-11-10T19:32:58.320Z,9.10
2022-11-10T19:35:25.105Z,9.10
2022-11-10T19:37:54.085Z,9.20
2022-11-10T19:40:22.406Z,9.20
2022-11-10T19:42:49.301Z,9.10
2022-11-10T19:45:16.708Z,9.10
2022-11-10T19:47:43.575Z,9.10
2022-11-10T19:50:10.497Z,9.10
2022-11-10T19:52:37.314Z,9.10
2022-11-10T19:55:04.272Z,9.10
2022-11-10T19:57:31.055Z,9.10
2022-11-10T19:59:57.812Z,9.10
2022-11-10T20:02:24.610Z,9.10
2022-11-10T20:05:09.837Z,9.20
2022-11-10T20:07:55.325Z,9.20
2022-11-10T20:10:22.069Z,9.20
2022-11-10T20:12:48.841Z,9.20
2022-11-10T20:15:15.797Z,9.20
2022-11-10T20:17:42.620Z,9.20
2022-11-10T20:20:09.523Z,9.10
2022-11-10T20:22:36.336Z,9.20
2022-11-10T20:25:03.917Z,9.10
2022-11-10T20:27:30.665Z,9.10
2022-11-10T20:29:57.733Z,9.10
2022-11-10T20:32:25.791Z,9.20
2022-11-10T20:34:52.585Z,9.10
2022-11-10T20:37:19.560Z,9.10
2022-11-10T20:39:46.381Z,9.20
2022-11-10T20:42:14.126Z,9.10
2022-11-10T20:44:41.158Z,9.10
2022-11-10T20:47:08.006Z,9.10
2022-11-10T20:49:35.058Z,9.10
2022-11-10T20:52:03.227Z,9.20
2022-11-10T20:54:30.331Z,9.20
2022-11-10T20:56:57.112Z,9.30
2022-11-10T20:59:24.017Z,9.20
2022-11-10T21:01:50.864Z,9.20
2022-11-10T21:04:18.145Z,9.20
2022-11-10T21:06:45.092Z,9.20
2022-11-10T21:09:11.959Z,9.20
2022-11-10T21:11:57.583Z,9.20
2022-11-10T21:14:24.379Z,9.20
2022-11-10T21:16:51.195Z,9.20
2022-11-10T21:19:18.078Z,9.20
2022-11-10T21:21:44.916Z,9.20
2022-11-10T21:24:11.798Z,9.20
2022-11-10T21:26:38.608Z,9.20
2022-11-10T21:29:07.712Z,9.20
2022-11-10T21:31:34.622Z,9.20
2022-11-10T21:34:01.436Z,9.20
2022-11-10T21:36:29.388Z,9.00
2022-11-10T21:38:57.470Z,9.00
2022-11-10T21:41:25.076Z,9.00
2022-11-10T21:43:51.824Z,9.00
2022-11-10T21:46:19.129Z,9.10
2022-11-10T21:48:45.942Z,9.10
2022-11-10T21:51:14.309Z,9.20
2022-11-10T21:53:44.343Z,9.10
2022-11-10T21:56:12.016Z,9.10
2022-11-10T21:58:39.462Z,9.20
2022-11-10T22:01:09.819Z,9.10
2022-11-10T22:03:37.101Z,9.10
2022-11-10T22:06:09.437Z,9.20
2022-11-10T22:08:38.121Z,9.20
2022-11-10T22:11:24.064Z,9.10
2022-11-10T22:14:09.532Z,9.10
2022-11-10T22:17:04.648Z,9.10
2022-11-10T22:19:32.883Z,9.00
2022-11-10T22:22:03.679Z,9.10
2022-11-10T22:24:31.214Z,9.10
2022-11-10T22:26:59.770Z,9.10
2022-11-10T22:29:31.779Z,9.20
2022-11-10T22:32:03.229Z,9.10
2022-11-10T22:34:30.032Z,9.10
2022-11-10T22:36:58.319Z,9.10
2022-11-10T22:39:45.238Z,9.10
2022-11-10T22:42:31.637Z,9.10
2022-11-10T22:44:58.565Z,9.10
2022-11-10T22:47:25.325Z,9.10
2022-11-10T22:49:52.100Z,9.10
2022-11-10T22:52:18.885Z,9.10
2022-11-10T22:54:45.646Z,9.10
2022-11-10T22:57:12.376Z,9.20
2022-11-10T22:59:39.138Z,9.20
2022-11-10T23:02:05.893Z,9.20
2022-11-10T23:04:32.621Z,9.10
2022-11-10T23:06:59.461Z,9.10
2022-11-10T23:09:26.286Z,9.20
2022-11-10T23:11:53.016Z,9.10
2022-11-10T23:14:19.803Z,9.10
2022-11-10T23:16:46.556Z,9.10
2022-11-10T23:19:13.431Z,9.10
2022-11-10T23:21:40.251Z,9.10
2022-11-10T23:24:07.261Z,9.10
2022-11-10T23:26:34.896Z,9.20
2022-11-10T23:29:01.743Z,9.10
2022-11-10T23:31:28.715Z,9.20
2022-11-10T23:33:56.831Z,9.20
2022-11-10T23:36:25.697Z,9.20
2022-11-10T23:38:52.510Z,9.20
2022-11-10T23:41:23.444Z,9.20
2022-11-10T23:43:50.473Z,9.10
2022-11-10T23:46:17.431Z,9.10
2022-11-10T23:48:44.410Z,9.10
2022-11-10T23:51:12.953Z,9.10
2022-11-10T23:53:39.986Z,9.10
2022-11-10T23:56:11.994Z,9.10
2022-11-10T23:58:39.086Z,9.10
